Time;durP1;ratioP1;P1;durP2;ratioP2;P2;SDS_P1;SDS_P2;PMS_P1;PMS_P2;Temp;Humidity;BMP_temperature;BMP_pressure;BME280_temperature;BME280_humidity;BME280_pressure;Samples;Min_cycle;Max_cycle;Signal;HPM_P1;HPM_P2
2022/01/01 00:02:07;;;;;;;;;48.75;40.50;;;;;14.09;71.46;102064.13;5072730;28;45414;-65
2022/01/01 00:04:32;;;;;;;;;48.00;38.75;;;;;14.06;71.49;102063.13;5060735;28;45487;-64
2022/01/01 00:06:57;;;;;;;;;51.50;37.50;;;;;13.62;71.86;101993.59;5073570;28;45413;-67
2022/01/01 00:09:23;;;;;;;;;52.00;41.25;;;;;14.06;71.83;102072.09;5073560;28;45364;-64
2022/01/01 00:11:48;;;;;;;;;52.50;38.50;;;;;14.04;71.59;102084.56;5068140;28;45925;-65
2022/01/01 00:14:13;;;;;;;;;48.25;40.25;;;;;14.04;71.92;102079.19;5052502;28;45383;-64
2022/01/01 00:16:39;;;;;;;;;54.75;42.00;;;;;14.07;71.44;102087.31;5052743;28;45348;-64
2022/01/01 00:19:04;;;;;;;;;50.50;39.00;;;;;14.07;71.65;102073.00;5053324;28;45465;-64
2022/01/01 00:21:30;;;;;;;;;3.00;0.00;;;;;14.10;71.50;102079.38;5059539;28;49748;-64
2022/01/01 00:23:55;;;;;;;;;55.25;43.00;;;;;14.10;71.02;102075.78;5072918;28;46332;-65
2022/01/01 00:26:21;;;;;;;;;55.50;41.75;;;;;13.63;71.40;102008.84;5072756;28;45481;-62
2022/01/01 00:28:46;;;;;;;;;52.75;41.75;;;;;14.06;71.76;102074.78;5071652;28;45444;-63
2022/01/01 00:31:11;;;;;;;;;53.50;42.00;;;;;14.08;71.69;102073.03;5072811;28;46597;-63
2022/01/01 00:33:37;;;;;;;;;42.25;36.50;;;;;14.09;71.38;102064.13;5073303;28;45385;-64
2022/01/01 00:36:03;;;;;;;;;53.50;41.50;;;;;14.11;71.15;102073.16;5073075;28;45366;-65
2022/01/01 00:38:28;;;;;;;;;51.00;41.00;;;;;14.04;70.92;102063.06;5073052;28;45498;-65
2022/01/01 00:40:54;;;;;;;;;50.00;39.25;;;;;14.12;71.03;102076.75;5052474;28;46015;-65
2022/01/01 00:43:19;;;;;;;;;45.50;37.25;;;;;14.13;71.39;102066.03;5052348;28;45571;-64
2022/01/01 00:45:45;;;;;;;;;50.25;40.25;;;;;14.13;70.90;102063.34;5070112;28;45365;-65
2022/01/01 00:48:10;;;;;;;;;54.00;40.75;;;;;13.98;71.15;102035.97;5073177;28;45614;-63
2022/01/01 00:50:36;;;;;;;;;51.75;42.50;;;;;14.07;70.87;102056.88;5071378;28;45551;-64
2022/01/01 00:53:02;;;;;;;;;54.50;44.00;;;;;14.19;70.73;102082.38;5073274;28;45410;-63
2022/01/01 00:55:27;;;;;;;;;46.25;37.75;;;;;14.13;70.79;102079.47;5065759;28;45481;-65
2022/01/01 00:57:53;;;;;;;;;46.25;39.25;;;;;14.16;70.88;102073.31;5055495;28;45553;-63
2022/01/01 01:00:18;;;;;;;;;53.50;41.00;;;;;14.20;71.17;102077.91;5052968;28;45323;-63
2022/01/01 01:02:43;;;;;;;;;50.00;41.75;;;;;14.16;71.06;102070.63;5067092;28;45643;-64
2022/01/01 01:05:09;;;;;;;;;51.50;39.75;;;;;14.23;70.92;102071.72;5080776;28;45686;-64
2022/01/01 01:07:34;;;;;;;;;49.00;41.00;;;;;14.23;70.72;102071.72;5092626;28;44957;-66
2022/01/01 01:09:59;;;;;;;;;52.00;41.75;;;;;14.19;71.06;102063.56;5091792;28;45712;-65
2022/01/01 01:12:34;;;;;;;;;45.25;36.00;;;;;14.21;70.74;102065.41;5087244;28;44994;-65
2022/01/01 01:14:59;;;;;;;;;48.50;38.25;;;;;13.85;70.56;102007.78;5070036;28;45407;-64
2022/01/01 01:17:24;;;;;;;;;50.00;41.25;;;;;14.19;70.80;102068.94;5056551;28;45198;-66
2022/01/01 01:19:50;;;;;;;;;48.00;37.00;;;;;14.12;70.56;102072.31;5056296;28;45302;-63
2022/01/01 01:22:15;;;;;;;;;47.75;35.00;;;;;13.77;70.77;102010.22;5056054;28;45796;-65
2022/01/01 01:24:40;;;;;;;;;40.00;35.25;;;;;13.74;71.00;101998.47;5071287;28;45533;-65
2022/01/01 01:27:06;;;;;;;;;32.25;24.75;;;;;14.01;71.19;102060.28;5073313;28;45187;-66
2022/01/01 01:29:36;;;;;;;;;40.50;34.25;;;;;14.01;70.99;102063.88;5093888;28;45650;-63
2022/01/01 01:32:02;;;;;;;;;41.75;35.50;;;;;14.00;71.57;102061.13;5092743;28;45210;-65
2022/01/01 01:34:27;;;;;;;;;40.75;33.25;;;;;13.96;71.22;102060.13;5092695;28;45059;-63
2022/01/01 01:36:53;;;;;;;;;45.25;34.00;;;;;13.98;71.23;102068.22;5091857;28;45107;-64
2022/01/01 01:39:18;;;;;;;;;42.25;34.50;;;;;13.87;71.25;102058.88;5083897;28;45397;-65
2022/01/01 01:41:44;;;;;;;;;42.25;33.25;;;;;13.74;71.62;102044.13;5072312;28;45918;-65
2022/01/01 01:44:29;;;;;;;;;33.75;28.75;;;;;13.80;71.25;102058.66;5079460;28;44974;-63
2022/01/01 01:46:55;;;;;;;;;43.75;36.25;;;;;13.89;71.50;102071.53;5094914;28;45126;-66
2022/01/01 01:49:21;;;;;;;;;46.00;34.50;;;;;13.90;71.12;102073.34;5080228;28;45808;-64
2022/01/01 01:51:47;;;;;;;;;36.25;33.00;;;;;13.85;71.69;102071.38;5074017;28;45204;-65
2022/01/01 01:54:16;;;;;;;;;40.00;34.50;;;;;13.47;71.45;102006.50;5087496;28;45116;-63
2022/01/01 01:56:44;;;;;;;;;37.25;34.00;;;;;13.78;71.62;102068.47;5082345;28;45007;-65
2022/01/01 01:59:10;;;;;;;;;40.50;34.50;;;;;13.74;71.80;102065.59;5092150;27;45626;-66
2022/01/01 02:01:35;;;;;;;;;28.50;24.50;;;;;13.60;72.26;102057.09;5079854;28;44931;-64
2022/01/01 02:04:01;;;;;;;;;41.75;35.00;;;;;13.62;71.88;102066.09;5073455;28;45135;-66
2022/01/01 02:06:26;;;;;;;;;41.75;34.50;;;;;13.56;72.02;102060.50;5073972;28;44898;-64
2022/01/01 02:08:52;;;;;;;;;43.50;36.00;;;;;13.57;72.24;102065.94;5073226;28;45868;-66
2022/01/01 02:11:20;;;;;;;;;37.75;32.50;;;;;13.52;72.07;102069.34;5089746;28;45298;-64
2022/01/01 02:18:46;;;;;;;;;42.00;33.50;;;;;13.59;72.49;102069.56;5091212;28;45372;-65
2022/01/01 02:21:12;;;;;;;;;45.00;36.75;;;;;13.58;71.82;102067.78;5073784;28;45025;-66
2022/01/01 02:23:42;;;;;;;;;41.50;33.25;;;;;13.55;72.45;102073.03;5092704;28;45156;-64
2022/01/01 02:26:12;;;;;;;;;45.75;39.00;;;;;13.55;71.96;102069.44;5076358;28;45060;-65
2022/01/01 02:28:46;;;;;;;;;50.75;43.25;;;;;13.48;71.87;102060.25;5074722;28;45581;-65
2022/01/01 02:31:16;;;;;;;;;44.75;35.75;;;;;13.43;72.70;102041.28;5091915;28;45106;-65
2022/01/01 02:33:43;;;;;;;;;52.50;39.50;;;;;13.49;71.99;102056.69;5090370;28;45562;-65
2022/01/01 02:36:08;;;;;;;;;42.75;36.00;;;;;13.40;71.82;102038.50;5090720;28;45219;-64
2022/01/01 02:38:35;;;;;;;;;40.25;36.00;;;;;13.50;71.89;102049.56;5090429;28;45517;-63
2022/01/01 02:41:00;;;;;;;;;48.50;36.25;;;;;13.48;72.11;102044.16;5054564;28;45303;-65
2022/01/01 02:43:26;;;;;;;;;47.50;37.00;;;;;13.43;72.71;102043.06;5072785;28;45042;-64
2022/01/01 02:45:53;;;;;;;;;49.75;34.00;;;;;13.42;72.44;102041.25;5073619;28;45033;-67
2022/01/01 02:48:18;;;;;;;;;47.75;34.75;;;;;13.43;72.20;102035.94;5071988;28;45420;-64
2022/01/01 02:50:43;;;;;;;;;43.00;35.25;;;;;13.37;72.87;102041.06;5088793;28;45083;-63
2022/01/01 02:53:16;;;;;;;;;44.75;34.00;;;;;13.34;72.91;102038.28;5081465;28;45239;-65
2022/01/01 02:55:45;;;;;;;;;44.50;32.50;;;;;13.34;72.04;102035.59;5088629;28;45032;-66
2022/01/01 02:58:12;;;;;;;;;44.50;37.00;;;;;13.20;72.48;102023.41;5077861;27;46159;-65
2022/01/01 03:00:39;;;;;;;;;37.25;33.75;;;;;13.32;72.73;102050.72;5099270;27;45078;-64
2022/01/01 03:03:05;;;;;;;;;39.00;34.75;;;;;13.31;72.44;102048.84;5113214;27;45048;-66
2022/01/01 03:05:31;;;;;;;;;49.00;39.00;;;;;13.31;72.94;102046.16;5112748;27;45106;-63
2022/01/01 03:07:57;;;;;;;;;45.75;36.75;;;;;13.30;72.54;102055.09;5111639;27;47669;-64
2022/01/01 03:10:23;;;;;;;;;49.75;36.25;;;;;13.24;72.13;102038.78;5100145;27;45144;-65
2022/01/01 03:12:48;;;;;;;;;49.50;37.75;;;;;13.16;72.26;102046.53;5101925;27;45021;-64
2022/01/01 03:15:14;;;;;;;;;44.00;35.00;;;;;13.28;72.68;102051.44;5091868;27;45085;-64
2022/01/01 03:17:39;;;;;;;;;46.50;36.25;;;;;13.28;72.69;102048.75;5090360;27;45539;-65
2022/01/01 03:20:05;;;;;;;;;39.00;32.50;;;;;13.31;72.32;102053.31;5093592;27;45106;-65
2022/01/01 03:22:31;;;;;;;;;44.75;36.25;;;;;13.23;72.52;102043.22;5093121;27;45067;-64
2022/01/01 03:24:56;;;;;;;;;43.00;33.50;;;;;13.31;72.19;102056.00;5092928;27;44985;-65
2022/01/01 03:27:21;;;;;;;;;43.50;36.50;;;;;13.20;72.23;102035.06;5091914;27;45078;-64
2022/01/01 03:29:47;;;;;;;;;59.75;49.00;;;;;13.13;71.87;102024.94;5095355;27;45129;-63
2022/01/01 03:32:12;;;;;;;;;48.00;37.25;;;;;13.26;72.14;102043.34;5092240;27;44956;-63
2022/01/01 03:34:39;;;;;;;;;45.50;33.25;;;;;13.26;72.58;102058.53;5092610;27;44929;-63
2022/01/01 03:37:05;;;;;;;;;45.50;33.00;;;;;13.25;71.94;102057.63;5094112;27;45182;-66
2022/01/01 03:39:30;;;;;;;;;44.00;33.25;;;;;13.06;72.95;102045.28;5100238;27;45130;-65
2022/01/01 03:41:55;;;;;;;;;40.75;33.75;;;;;12.98;72.69;102030.66;5108807;27;45246;-65
2022/01/01 03:44:21;;;;;;;;;40.75;32.50;;;;;13.11;72.91;102045.44;5112927;27;45167;-64
2022/01/01 03:46:46;;;;;;;;;40.50;33.75;;;;;13.11;72.55;102044.56;5112177;27;45576;-64
2022/01/01 03:49:12;;;;;;;;;39.50;31.00;;;;;12.73;72.83;101973.44;5108701;27;44914;-65
2022/01/01 03:51:37;;;;;;;;;12.00;9.50;;;;;12.97;72.71;102011.81;5092883;27;45091;-66
2022/01/01 03:54:03;;;;;;;;;37.50;31.50;;;;;13.13;73.08;102038.38;5110400;27;45023;-64
2022/01/01 03:56:28;;;;;;;;;28.75;27.75;;;;;13.16;73.04;102041.16;5106471;27;45083;-65
2022/01/01 03:58:53;;;;;;;;;38.50;31.00;;;;;13.15;72.66;102049.16;5103776;27;46261;-64
2022/01/01 04:01:19;;;;;;;;;33.50;27.00;;;;;13.09;72.66;102037.34;5090325;28;45291;-62
2022/01/01 04:03:44;;;;;;;;;30.00;28.00;;;;;13.14;72.90;102052.72;5092257;28;45142;-65
2022/01/01 04:06:09;;;;;;;;;33.25;29.00;;;;;13.17;72.39;102043.00;5072833;28;45339;-65
2022/01/01 04:08:35;;;;;;;;;28.00;23.50;;;;;13.16;72.53;102045.63;5071294;28;45006;-64
2022/01/01 04:11:00;;;;;;;;;36.25;30.75;;;;;13.11;72.10;102034.72;5071368;28;44907;-64
2022/01/01 04:13:26;;;;;;;;;29.50;28.00;;;;;13.14;72.62;102039.31;5053486;28;45257;-63
2022/01/01 04:15:51;;;;;;;;;31.75;27.00;;;;;13.16;72.12;102037.56;5075588;28;45426;-66
2022/01/01 04:18:26;;;;;;;;;30.75;29.00;;;;;13.11;72.11;102036.50;5089548;28;45018;-64
2022/01/01 04:20:52;;;;;;;;;31.50;27.25;;;;;13.11;73.12;102037.41;5088135;28;45637;-63
2022/01/01 04:23:17;;;;;;;;;23.75;22.25;;;;;13.14;72.16;102047.34;5092553;28;45106;-64
2022/01/01 04:25:44;;;;;;;;;29.50;24.25;;;;;13.16;72.14;102037.56;5091480;28;45718;-65
2022/01/01 04:28:10;;;;;;;;;32.00;25.50;;;;;13.16;71.76;102034.91;5089288;28;44885;-64
2022/01/01 04:30:35;;;;;;;;;29.00;27.25;;;;;13.04;72.56;102021.94;5090221;28;45295;-65
2022/01/01 04:33:01;;;;;;;;;27.25;24.75;;;;;13.08;72.29;102026.56;5090662;28;45330;-63
2022/01/01 04:35:27;;;;;;;;;23.00;23.00;;;;;13.06;71.70;102025.59;5090246;28;45870;-64
2022/01/01 04:37:52;;;;;;;;;34.25;25.00;;;;;13.08;71.77;102024.81;5091321;27;45281;-64
2022/01/01 04:40:18;;;;;;;;;23.75;21.25;;;;;13.04;72.18;102019.25;5088229;28;45201;-63
2022/01/01 04:42:43;;;;;;;;;28.25;22.75;;;;;13.01;71.98;102020.06;5096084;28;45100;-64
2022/01/01 04:45:09;;;;;;;;;24.50;24.50;;;;;12.96;72.38;102024.34;5096121;28;45592;-64
2022/01/01 04:47:35;;;;;;;;;25.75;23.00;;;;;12.96;71.94;102021.66;5095289;28;45125;-64
2022/01/01 04:50:02;;;;;;;;;28.25;26.50;;;;;12.95;72.52;102025.22;5085462;28;44851;-65
2022/01/01 04:52:28;;;;;;;;;30.50;28.00;;;;;12.96;71.97;102029.69;5087321;28;45181;-63
2022/01/01 04:54:54;;;;;;;;;34.50;29.25;;;;;12.94;71.92;102030.53;5080277;28;45676;-64
2022/01/01 04:57:19;;;;;;;;;34.00;24.75;;;;;12.84;72.31;101999.75;5072719;28;45270;-65
2022/01/01 04:59:44;;;;;;;;;34.00;29.75;;;;;12.87;72.27;102014.19;5082379;28;44892;-64
2022/01/01 05:02:10;;;;;;;;;38.50;31.50;;;;;12.80;71.97;101997.81;5078849;28;44942;-63
2022/01/01 05:04:38;;;;;;;;;35.00;32.25;;;;;12.84;71.84;102024.78;5073095;28;44993;-63
2022/01/01 05:07:05;;;;;;;;;35.75;31.00;;;;;12.83;72.30;102024.75;5074063;28;45185;-63
2022/01/01 05:09:30;;;;;;;;;31.25;29.50;;;;;12.88;72.18;102037.44;5079173;28;45086;-63
2022/01/01 05:11:55;;;;;;;;;34.25;30.00;;;;;12.87;71.40;102027.59;5094739;28;45096;-64
2022/01/01 05:14:21;;;;;;;;;28.75;24.25;;;;;12.83;72.15;102032.78;5094461;28;45127;-62
2022/01/01 05:16:46;;;;;;;;;29.50;29.00;;;;;12.78;71.76;102027.25;5086015;28;45017;-64
2022/01/01 05:19:12;;;;;;;;;25.75;25.75;;;;;12.85;72.40;102041.78;5076540;28;45164;-65
2022/01/01 05:21:37;;;;;;;;;26.25;26.25;;;;;12.75;71.85;102028.91;5083391;28;45095;-64
2022/01/01 05:24:05;;;;;;;;;31.00;25.75;;;;;12.81;72.17;102048.81;5074321;28;45434;-64
2022/01/01 05:26:31;;;;;;;;;32.75;28.00;;;;;12.83;71.65;102043.50;5074638;28;45232;-63
2022/01/01 05:28:57;;;;;;;;;28.75;26.25;;;;;12.82;72.17;102039.00;5059275;28;45199;-66
2022/01/01 05:31:22;;;;;;;;;27.25;22.75;;;;;12.84;71.55;102034.63;5093019;28;45468;-64
2022/01/01 05:33:52;;;;;;;;;27.00;26.25;;;;;12.80;71.66;102038.97;5093723;28;45689;-63
2022/01/01 05:36:18;;;;;;;;;26.00;22.25;;;;;12.78;71.78;102037.97;5075550;28;45009;-65
2022/01/01 05:38:45;;;;;;;;;23.00;22.50;;;;;12.75;72.08;102034.25;5093699;28;45028;-63
2022/01/01 05:41:11;;;;;;;;;26.00;23.00;;;;;12.61;71.14;101998.88;5076840;28;45234;-64
2022/01/01 05:43:37;;;;;;;;;33.50;27.50;;;;;12.73;71.63;102031.53;5073873;28;45056;-63
2022/01/01 05:46:02;;;;;;;;;32.50;24.50;;;;;12.64;72.18;102032.09;5074180;28;44997;-64
2022/01/01 05:48:28;;;;;;;;;23.50;22.50;;;;;12.60;71.96;102022.09;5073901;28;45113;-62
2022/01/01 05:50:54;;;;;;;;;22.75;22.75;;;;;12.65;72.15;102024.94;5087666;28;45137;-63
2022/01/01 05:53:19;;;;;;;;;29.00;24.50;;;;;12.60;71.77;102024.75;5094009;28;45695;-64
2022/01/01 05:55:45;;;;;;;;;22.00;22.00;;;;;12.45;71.95;101992.03;5083750;28;44878;-64
2022/01/01 05:58:11;;;;;;;;;32.50;27.75;;;;;12.63;71.99;102022.22;5053641;28;45297;-63
2022/01/01 06:00:37;;;;;;;;;25.00;22.00;;;;;12.45;72.00;102000.06;5087511;28;44922;-65
2022/01/01 06:03:02;;;;;;;;;26.50;24.00;;;;;12.60;71.95;102022.09;5093093;28;45127;-66
2022/01/01 06:05:28;;;;;;;;;23.75;20.50;;;;;12.43;71.04;101985.69;5094236;28;45087;-63
2022/01/01 06:07:55;;;;;;;;;29.25;26.50;;;;;12.46;71.20;101994.75;5094729;28;44937;-63
2022/01/01 06:10:21;;;;;;;;;29.00;27.00;;;;;12.47;71.36;102001.97;5091209;28;46338;-64
2022/01/01 06:12:47;;;;;;;;;25.00;25.00;;;;;12.57;71.93;102031.78;5072072;28;45371;-63
2022/01/01 06:15:12;;;;;;;;;30.00;20.75;;;;;12.55;72.01;102012.97;5073548;28;45112;-65
2022/01/01 06:17:38;;;;;;;;;31.75;25.50;;;;;12.54;71.59;102016.50;5071381;28;45581;-63
2022/01/01 06:20:03;;;;;;;;;27.00;20.25;;;;;12.51;71.76;102024.44;5081677;28;45164;-66
2022/01/01 06:22:29;;;;;;;;;28.75;21.25;;;;;12.49;71.18;102023.47;5092388;28;45800;-63
2022/01/01 06:24:54;;;;;;;;;30.00;24.50;;;;;12.44;71.34;102014.31;5078276;28;45299;-64
2022/01/01 06:27:19;;;;;;;;;22.50;22.00;;;;;12.43;71.53;102017.84;5094057;28;45025;-63
2022/01/01 06:29:45;;;;;;;;;28.50;23.75;;;;;12.24;71.67;101984.97;5077064;28;45334;-63
2022/01/01 06:32:11;;;;;;;;;24.00;21.50;;;;;12.12;72.57;101985.38;5072662;28;45065;-65
2022/01/01 06:34:38;;;;;;;;;23.75;18.75;;;;;12.32;71.77;102021.03;5086276;28;45119;-66
2022/01/01 06:37:03;;;;;;;;;22.00;22.00;;;;;12.22;72.18;102005.41;5093827;28;44919;-62
2022/01/01 06:39:28;;;;;;;;;26.25;21.75;;;;;12.16;71.89;101998.06;5085321;28;45155;-64
2022/01/01 06:41:54;;;;;;;;;30.50;27.00;;;;;12.29;71.67;102020.91;5081265;28;45519;-64
2022/01/01 06:44:19;;;;;;;;;25.00;22.25;;;;;12.22;71.98;102012.56;5090906;28;44966;-63
2022/01/01 06:46:44;;;;;;;;;28.50;23.50;;;;;12.21;71.91;102008.03;5082493;28;45000;-63
2022/01/01 06:49:10;;;;;;;;;23.25;22.25;;;;;12.22;71.60;102008.09;5076178;28;44931;-64
2022/01/01 06:51:36;;;;;;;;;20.50;17.00;;;;;12.19;72.28;102004.38;5092264;28;45421;-64
2022/01/01 06:54:02;;;;;;;;;24.00;22.25;;;;;12.22;72.43;102010.78;5085064;28;45007;-63
2022/01/01 06:56:28;;;;;;;;;26.75;23.50;;;;;12.20;72.67;102008.91;5089061;28;45256;-63
2022/01/01 06:58:53;;;;;;;;;23.50;21.50;;;;;12.13;71.72;101997.94;5090282;27;45178;-62
2022/01/01 07:01:18;;;;;;;;;22.00;20.50;;;;;12.20;71.41;102014.28;5091354;27;45017;-64
2022/01/01 07:03:44;;;;;;;;;21.00;21.00;;;;;12.19;72.50;102010.66;5085386;28;45734;-65
2022/01/01 07:06:09;;;;;;;;;20.75;18.75;;;;;12.19;71.69;102010.66;5070234;28;45216;-62
2022/01/01 07:08:35;;;;;;;;;28.25;24.25;;;;;12.16;71.59;102003.41;5070055;28;45167;-63
2022/01/01 07:11:01;;;;;;;;;24.00;19.00;;;;;12.14;71.91;102009.56;5085628;28;45561;-64
2022/01/01 07:13:26;;;;;;;;;20.25;20.00;;;;;12.22;72.01;102009.88;5083353;28;44922;-64
2022/01/01 07:15:52;;;;;;;;;22.25;19.50;;;;;12.23;71.22;102014.41;5071188;28;45144;-62
2022/01/01 07:18:17;;;;;;;;;21.75;19.25;;;;;12.12;71.92;102011.28;5072173;28;45194;-63
2022/01/01 07:20:43;;;;;;;;;26.25;21.00;;;;;12.12;72.26;102012.16;5072671;28;45036;-65
2022/01/01 07:23:09;;;;;;;;;20.25;18.50;;;;;12.05;72.34;102003.84;5071490;28;44937;-64
2022/01/01 07:25:35;;;;;;;;;24.50;19.25;;;;;11.94;72.39;101990.00;5092198;28;44969;-63
2022/01/01 07:28:00;;;;;;;;;22.25;20.25;;;;;11.99;72.23;101991.09;5087365;28;45155;-63
2022/01/01 07:30:25;;;;;;;;;23.25;19.75;;;;;12.11;71.72;102015.72;5084216;28;45374;-63
2022/01/01 07:32:52;;;;;;;;;26.00;23.50;;;;;12.18;72.11;102014.19;5091428;28;44929;-64
2022/01/01 07:35:19;;;;;;;;;20.25;18.75;;;;;12.13;70.93;102011.34;5091606;28;45911;-64
2022/01/01 07:37:45;;;;;;;;;22.75;18.50;;;;;12.21;71.09;102019.69;5078222;28;45227;-63
2022/01/01 07:40:13;;;;;;;;;21.25;18.25;;;;;12.23;71.12;102019.75;5084882;28;45699;-65
2022/01/01 07:42:39;;;;;;;;;29.50;16.75;;;;;12.14;70.88;102014.91;5090616;28;45158;-65
2022/01/01 07:45:06;;;;;;;;;22.25;20.75;;;;;12.10;71.33;102018.34;5074267;28;45235;-65
2022/01/01 07:47:32;;;;;;;;;24.00;20.00;;;;;12.02;71.53;102012.66;5072446;28;45180;-63
2022/01/01 07:49:57;;;;;;;;;21.00;18.50;;;;;11.96;71.69;102007.97;5069630;28;45491;-65
2022/01/01 07:52:22;;;;;;;;;25.25;23.00;;;;;12.00;71.13;102006.34;5088210;28;45066;-65
2022/01/01 07:54:48;;;;;;;;;16.75;15.00;;;;;11.90;72.22;101999.66;5091107;28;44999;-63
2022/01/01 07:57:13;;;;;;;;;25.75;21.75;;;;;12.02;71.64;102011.75;5087764;28;44906;-64
2022/01/01 07:59:38;;;;;;;;;22.00;19.50;;;;;12.07;70.83;102015.53;5071001;28;45300;-64
2022/01/01 08:02:04;;;;;;;;;27.00;20.25;;;;;12.05;71.68;102026.19;5080179;28;46340;-62
2022/01/01 08:04:30;;;;;;;;;14.00;13.50;;;;;12.06;71.49;102022.66;5074034;28;45243;-65
2022/01/01 08:06:55;;;;;;;;;20.25;18.00;;;;;12.08;71.02;102029.00;5071634;28;45015;-63
2022/01/01 08:09:20;;;;;;;;;17.25;16.75;;;;;12.05;71.73;102025.28;5078894;28;45225;-65
2022/01/01 08:11:46;;;;;;;;;25.50;20.00;;;;;12.08;71.17;102029.00;5089511;28;45155;-64
2022/01/01 08:14:11;;;;;;;;;20.75;18.25;;;;;12.11;71.24;102028.19;5076820;28;44965;-64
2022/01/01 08:17:03;;;;;;;;;21.25;19.75;;;;;12.04;70.57;102027.03;5079129;28;45003;-62
2022/01/01 08:19:29;;;;;;;;;25.75;22.50;;;;;11.96;71.38;102024.03;5086671;28;45251;-65
2022/01/01 08:21:54;;;;;;;;;20.75;20.00;;;;;11.94;71.57;102011.44;5074002;28;45684;-62
2022/01/01 08:24:21;;;;;;;;;17.50;16.25;;;;;11.78;70.79;101980.41;5074081;28;45410;-63
2022/01/01 08:26:46;;;;;;;;;23.00;23.00;;;;;11.91;70.85;102003.22;5075728;28;45445;-63
2022/01/01 08:29:12;;;;;;;;;17.75;17.75;;;;;11.88;70.87;102000.44;5073136;28;45465;-64
2022/01/01 08:31:38;;;;;;;;;21.75;19.00;;;;;11.86;71.27;101997.69;5073945;28;45541;-64
2022/01/01 08:34:03;;;;;;;;;22.50;17.25;;;;;11.82;71.46;102000.19;5069891;28;45747;-63
2022/01/01 08:36:29;;;;;;;;;19.25;17.50;;;;;11.84;71.63;102009.19;5054304;28;45541;-63
2022/01/01 08:38:54;;;;;;;;;19.00;19.00;;;;;11.75;71.83;101999.03;5055375;28;46520;-64
2022/01/01 08:41:19;;;;;;;;;17.50;17.00;;;;;11.78;71.89;102002.75;5059157;28;45382;-64
2022/01/01 08:43:45;;;;;;;;;17.25;16.75;;;;;11.84;72.03;102002.06;5074497;28;45545;-64
2022/01/01 08:46:11;;;;;;;;;13.00;13.00;;;;;11.69;71.53;101972.00;5079623;28;45263;-62
2022/01/01 08:48:36;;;;;;;;;24.75;18.25;;;;;11.79;71.80;101998.28;5069735;28;46344;-63
2022/01/01 08:51:16;;;;;;;;;22.25;19.25;;;;;11.82;71.35;101995.75;5064942;28;45385;-63
2022/01/01 08:53:41;;;;;;;;;17.00;14.50;;;;;11.85;70.94;101995.88;5062993;28;45487;-64
2022/01/01 08:56:07;;;;;;;;;20.00;17.75;;;;;11.82;71.76;101993.06;5077709;28;45355;-64
2022/01/01 08:58:33;;;;;;;;;17.25;15.50;;;;;11.79;71.61;101998.28;5069754;28;47279;-63
2022/01/01 09:00:59;;;;;;;;;30.75;27.25;;;;;11.78;71.01;102001.84;5092983;27;45383;-63
2022/01/01 09:03:24;;;;;;;;;21.75;18.75;;;;;11.79;71.57;102000.97;5083070;27;45482;-63
2022/01/01 09:05:50;;;;;;;;;19.25;14.25;;;;;11.86;71.25;102002.13;5078861;28;45439;-64
2022/01/01 09:08:15;;;;;;;;;16.50;14.00;;;;;11.95;71.17;102007.91;5089955;27;46266;-63
2022/01/01 09:10:40;;;;;;;;;20.25;17.75;;;;;11.98;70.42;102010.72;5093953;27;45146;-63
2022/01/01 09:13:06;;;;;;;;;14.50;13.75;;;;;12.05;70.61;102001.16;5100313;27;45150;-64
2022/01/01 09:15:31;;;;;;;;;25.25;18.50;;;;;12.05;70.45;101998.50;5088578;27;45263;-63
2022/01/01 09:17:56;;;;;;;;;32.50;31.25;;;;;12.09;70.48;101989.72;5107059;27;45446;-64
2022/01/01 09:20:21;;;;;;;;;19.00;16.75;;;;;12.11;70.59;101983.56;5105991;27;45248;-64
2022/01/01 09:22:47;;;;;;;;;16.75;16.75;;;;;12.11;70.68;101982.63;5088975;27;45193;-64
2022/01/01 09:25:12;;;;;;;;;12.75;12.75;;;;;12.07;70.21;101981.59;5086225;27;45411;-62
2022/01/01 09:27:38;;;;;;;;;19.25;15.00;;;;;11.97;70.46;101950.84;5106247;27;45465;-63
2022/01/01 09:30:04;;;;;;;;;19.50;17.75;;;;;12.15;70.38;101969.44;5106901;27;45456;-62
2022/01/01 09:32:29;;;;;;;;;16.00;16.00;;;;;12.18;70.47;101965.97;5099029;27;45498;-63
2022/01/01 09:34:55;;;;;;;;;17.75;15.75;;;;;12.19;69.33;101959.75;5107884;27;45406;-62
2022/01/01 09:37:21;;;;;;;;;16.00;16.00;;;;;12.16;69.73;101948.94;5100069;27;45617;-62
2022/01/01 09:39:46;;;;;;;;;19.00;17.75;;;;;11.97;69.40;101929.44;5102392;27;45295;-65
2022/01/01 09:42:14;;;;;;;;;19.00;16.50;;;;;12.04;69.93;101957.38;5111716;27;44958;-64
2022/01/01 09:44:40;;;;;;;;;17.00;15.00;;;;;12.04;70.37;101959.16;5112721;27;44890;-64
2022/01/01 09:47:06;;;;;;;;;17.00;14.25;;;;;12.05;70.34;101961.91;5095256;27;45097;-62
2022/01/01 09:49:31;;;;;;;;;16.50;16.00;;;;;11.89;69.95;101933.53;5091346;27;45141;-62
2022/01/01 09:51:57;;;;;;;;;18.50;17.00;;;;;11.62;69.69;101896.78;5091238;27;45377;-62
2022/01/01 09:54:22;;;;;;;;;19.00;16.25;;;;;11.91;70.29;101939.94;5091177;27;44942;-62
2022/01/01 09:56:47;;;;;;;;;20.25;15.50;;;;;11.97;70.34;101945.50;5098890;27;45150;-64
2022/01/01 09:59:14;;;;;;;;;16.50;14.25;;;;;12.10;70.38;101946.00;5101238;27;45029;-64
2022/01/01 10:01:39;;;;;;;;;14.00;12.25;;;;;12.25;69.79;101962.66;5092117;28;45007;-64
2022/01/01 10:04:13;;;;;;;;;19.50;17.75;;;;;12.27;69.09;101960.06;5089542;28;45330;-62
2022/01/01 10:06:39;;;;;;;;;15.50;14.75;;;;;12.28;68.99;101964.56;5091323;28;46068;-65
2022/01/01 10:09:06;;;;;;;;;25.25;17.25;;;;;12.29;68.92;101961.97;5091301;28;45278;-64
2022/01/01 10:11:33;;;;;;;;;18.50;16.75;;;;;12.29;68.51;101955.66;5091407;28;45349;-62
2022/01/01 10:13:59;;;;;;;;;16.25;14.50;;;;;12.40;69.10;101964.13;5090747;28;44914;-63
2022/01/01 10:16:24;;;;;;;;;20.75;16.00;;;;;12.43;68.40;101972.28;5090563;28;45256;-64
2022/01/01 10:18:53;;;;;;;;;14.50;11.75;;;;;12.43;67.85;101962.47;5090624;28;44930;-64
2022/01/01 10:21:23;;;;;;;;;17.75;17.25;;;;;12.42;68.77;101957.97;5089632;28;45055;-65
2022/01/01 10:23:52;;;;;;;;;15.50;14.50;;;;;12.45;68.61;101957.19;5090700;28;44957;-62
2022/01/01 10:29:23;;;;;;;;;14.50;14.50;;;;;12.57;68.94;101952.25;5090339;28;45070;-62
2022/01/01 10:32:00;;;;;;;;;20.50;19.50;;;;;12.58;67.92;101961.25;5091522;28;45012;-62
2022/01/01 10:34:32;;;;;;;;;20.25;13.50;;;;;12.68;68.38;101960.72;5093422;28;45209;-63
2022/01/01 10:36:58;;;;;;;;;14.75;13.50;;;;;12.75;67.50;101956.50;5090968;27;45306;-62
2022/01/01 10:39:25;;;;;;;;;15.00;12.75;;;;;12.75;67.84;101961.84;5091015;28;45186;-64
2022/01/01 10:41:59;;;;;;;;;15.50;11.00;;;;;12.76;66.49;101959.22;5089780;28;45128;-64
2022/01/01 10:44:30;;;;;;;;;13.25;10.25;;;;;12.85;66.99;101956.91;5086994;28;45327;-62
2022/01/01 10:46:57;;;;;;;;;14.75;12.25;;;;;12.91;67.03;101954.41;5089552;28;45788;-63
2022/01/01 10:50:14;;;;;;;;;14.50;14.50;;;;;12.88;66.88;101953.41;5088772;28;45276;-65
2022/01/01 10:52:24;;;;;;;;;13.00;13.00;;;;;12.98;66.95;101962.69;5084538;28;45167;-64
2022/01/01 10:54:59;;;;;;;;;16.50;14.00;;;;;13.04;65.83;101960.25;5073021;28;44992;-65
2022/01/01 10:57:33;;;;;;;;;21.75;17.50;;;;;13.03;66.40;101947.66;5091196;28;45654;-63
2022/01/01 11:00:04;;;;;;;;;30.25;23.25;;;;;13.12;66.49;101952.47;5089090;27;44904;-64
2022/01/01 11:02:33;;;;;;;;;16.75;14.00;;;;;13.19;66.00;101951.81;5088252;28;45483;-62
2022/01/01 11:04:58;;;;;;;;;15.25;15.00;;;;;13.31;65.87;101956.69;5090668;28;44912;-63
2022/01/01 11:07:27;;;;;;;;;16.25;15.75;;;;;13.31;65.30;101932.53;5091321;28;45640;-65
2022/01/01 11:09:55;;;;;;;;;16.00;12.25;;;;;13.44;65.40;101940.19;5085560;28;45566;-63
2022/01/01 11:12:22;;;;;;;;;13.00;11.75;;;;;13.50;65.19;101942.19;5084370;28;45357;-62
2022/01/01 11:14:48;;;;;;;;;14.00;14.00;;;;;13.56;64.82;101937.00;5088400;28;45257;-62